sensor_id;sensor_type;location;lat;lon;timestamp;P1;durP1;ratioP1;P2;durP2;ratioP2
41719;SDS011;27405;53.316;-6.294;2024-02-21T00:01:44;6.32;;;1.40;;
41719;SDS011;27405;53.316;-6.294;2024-02-21T00:04:10;5.45;;;1.45;;
41719;SDS011;27405;53.316;-6.294;2024-02-21T00:06:35;10.38;;;1.60;;
41719;SDS011;27405;53.316;-6.294;2024-02-21T00:09:01;5.82;;;1.40;;
41719;SDS011;27405;53.316;-6.294;2024-02-21T00:11:28;11.57;;;1.77;;
41719;SDS011;27405;53.316;-6.294;2024-02-21T00:13:53;7.93;;;1.38;;
41719;SDS011;27405;53.316;-6.294;2024-02-21T00:16:19;9.13;;;1.98;;
41719;SDS011;27405;53.316;-6.294;2024-02-21T00:18:45;6.18;;;1.50;;
41719;SDS011;27405;53.316;-6.294;2024-02-21T00:21:10;12.27;;;1.75;;
41719;SDS011;27405;53.316;-6.294;2024-02-21T00:23:43;12.45;;;3.22;;
41719;SDS011;27405;53.316;-6.294;2024-02-21T00:26:12;11.77;;;1.90;;
41719;SDS011;27405;53.316;-6.294;2024-02-21T00:28:39;10.23;;;2.08;;
41719;SDS011;27405;53.316;-6.294;2024-02-21T00:31:05;9.73;;;1.60;;
41719;SDS011;27405;53.316;-6.294;2024-02-21T00:33:30;9.98;;;2.13;;
41719;SDS011;27405;53.316;-6.294;2024-02-21T00:35:56;9.90;;;2.05;;
41719;SDS011;27405;53.316;-6.294;2024-02-21T00:38:21;6.38;;;1.67;;
41719;SDS011;27405;53.316;-6.294;2024-02-21T00:40:47;11.60;;;1.67;;
41719;SDS011;27405;53.316;-6.294;2024-02-21T00:43:13;5.93;;;1.40;;
41719;SDS011;27405;53.316;-6.294;2024-02-21T00:45:39;12.30;;;2.30;;
41719;SDS011;27405;53.316;-6.294;2024-02-21T00:48:04;9.13;;;1.83;;
41719;SDS011;27405;53.316;-6.294;2024-02-21T00:50:30;9.55;;;1.58;;
41719;SDS011;27405;53.316;-6.294;2024-02-21T00:52:56;8.15;;;1.90;;
41719;SDS011;27405;53.316;-6.294;2024-02-21T00:55:21;11.70;;;1.48;;
41719;SDS011;27405;53.316;-6.294;2024-02-21T00:57:47;15.13;;;2.75;;
41719;SDS011;27405;53.316;-6.294;2024-02-21T01:00:13;9.93;;;1.70;;
41719;SDS011;27405;53.316;-6.294;2024-02-21T01:02:39;8.27;;;2.40;;
41719;SDS011;27405;53.316;-6.294;2024-02-21T01:05:04;12.57;;;3.10;;
41719;SDS011;27405;53.316;-6.294;2024-02-21T01:07:31;12.38;;;3.10;;
41719;SDS011;27405;53.316;-6.294;2024-02-21T01:09:56;11.15;;;2.28;;
41719;SDS011;27405;53.316;-6.294;2024-02-21T01:12:22;8.82;;;1.92;;
41719;SDS011;27405;53.316;-6.294;2024-02-21T01:14:47;5.18;;;1.45;;
41719;SDS011;27405;53.316;-6.294;2024-02-21T01:17:14;9.48;;;1.90;;
41719;SDS011;27405;53.316;-6.294;2024-02-21T01:19:40;10.02;;;1.58;;
41719;SDS011;27405;53.316;-6.294;2024-02-21T01:22:05;12.65;;;2.05;;
41719;SDS011;27405;53.316;-6.294;2024-02-21T01:24:31;8.88;;;1.70;;
41719;SDS011;27405;53.316;-6.294;2024-02-21T01:26:57;6.88;;;1.77;;
41719;SDS011;27405;53.316;-6.294;2024-02-21T01:29:22;6.43;;;1.73;;
41719;SDS011;27405;53.316;-6.294;2024-02-21T01:31:48;7.93;;;1.92;;
41719;SDS011;27405;53.316;-6.294;2024-02-21T01:34:14;10.25;;;2.33;;
41719;SDS011;27405;53.316;-6.294;2024-02-21T01:36:39;6.47;;;1.85;;
41719;SDS011;27405;53.316;-6.294;2024-02-21T01:39:06;10.90;;;2.40;;
41719;SDS011;27405;53.316;-6.294;2024-02-21T01:41:32;7.38;;;2.05;;
41719;SDS011;27405;53.316;-6.294;2024-02-21T01:43:57;8.70;;;2.05;;
41719;SDS011;27405;53.316;-6.294;2024-02-21T01:46:23;9.60;;;2.10;;
41719;SDS011;27405;53.316;-6.294;2024-02-21T01:48:54;12.38;;;2.30;;
41719;SDS011;27405;53.316;-6.294;2024-02-21T01:51:20;11.93;;;2.38;;
41719;SDS011;27405;53.316;-6.294;2024-02-21T01:53:46;6.57;;;2.40;;
41719;SDS011;27405;53.316;-6.294;2024-02-21T01:56:12;13.43;;;2.40;;
41719;SDS011;27405;53.316;-6.294;2024-02-21T01:58:39;10.63;;;2.38;;
41719;SDS011;27405;53.316;-6.294;2024-02-21T02:01:07;6.03;;;2.15;;
41719;SDS011;27405;53.316;-6.294;2024-02-21T02:03:33;10.35;;;2.03;;
41719;SDS011;27405;53.316;-6.294;2024-02-21T02:05:59;8.82;;;2.20;;
41719;SDS011;27405;53.316;-6.294;2024-02-21T02:08:25;11.48;;;2.80;;
41719;SDS011;27405;53.316;-6.294;2024-02-21T02:10:51;12.35;;;2.63;;
41719;SDS011;27405;53.316;-6.294;2024-02-21T02:13:17;11.95;;;2.60;;
41719;SDS011;27405;53.316;-6.294;2024-02-21T02:18:13;9.23;;;2.40;;
41719;SDS011;27405;53.316;-6.294;2024-02-21T02:20:39;12.27;;;2.60;;
41719;SDS011;27405;53.316;-6.294;2024-02-21T02:25:42;13.57;;;3.00;;
41719;SDS011;27405;53.316;-6.294;2024-02-21T02:28:08;12.68;;;2.55;;
41719;SDS011;27405;53.316;-6.294;2024-02-21T02:30:35;8.93;;;2.42;;
41719;SDS011;27405;53.316;-6.294;2024-02-21T02:33:02;11.35;;;3.10;;
41719;SDS011;27405;53.316;-6.294;2024-02-21T02:35:31;4.32;;;1.10;;
41719;SDS011;27405;53.316;-6.294;2024-02-21T02:37:57;4.32;;;0.90;;
41719;SDS011;27405;53.316;-6.294;2024-02-21T02:40:23;0.25;;;0.25;;
41719;SDS011;27405;53.316;-6.294;2024-02-21T02:42:49;0.65;;;0.20;;
41719;SDS011;27405;53.316;-6.294;2024-02-21T02:45:16;0.30;;;0.17;;
41719;SDS011;27405;53.316;-6.294;2024-02-21T02:47:44;0.10;;;0.10;;
41719;SDS011;27405;53.316;-6.294;2024-02-21T02:50:10;0.50;;;0.40;;
41719;SDS011;27405;53.316;-6.294;2024-02-21T02:52:36;1.65;;;0.20;;
41719;SDS011;27405;53.316;-6.294;2024-02-21T02:55:02;0.65;;;0.17;;
41719;SDS011;27405;53.316;-6.294;2024-02-21T02:57:28;0.60;;;0.20;;
41719;SDS011;27405;53.316;-6.294;2024-02-21T02:59:54;0.45;;;0.30;;
41719;SDS011;27405;53.316;-6.294;2024-02-21T03:02:20;1.45;;;0.30;;
41719;SDS011;27405;53.316;-6.294;2024-02-21T03:04:45;1.25;;;0.45;;
41719;SDS011;27405;53.316;-6.294;2024-02-21T03:07:11;0.35;;;0.20;;
41719;SDS011;27405;53.316;-6.294;2024-02-21T03:09:37;0.40;;;0.40;;
41719;SDS011;27405;53.316;-6.294;2024-02-21T03:12:03;0.85;;;0.30;;
41719;SDS011;27405;53.316;-6.294;2024-02-21T03:14:31;0.73;;;0.30;;
41719;SDS011;27405;53.316;-6.294;2024-02-21T03:16:57;0.20;;;0.20;;
41719;SDS011;27405;53.316;-6.294;2024-02-21T03:19:24;0.20;;;0.20;;
41719;SDS011;27405;53.316;-6.294;2024-02-21T03:21:49;0.52;;;0.22;;
41719;SDS011;27405;53.316;-6.294;2024-02-21T03:24:16;1.20;;;0.20;;
41719;SDS011;27405;53.316;-6.294;2024-02-21T03:26:42;1.58;;;0.20;;
41719;SDS011;27405;53.316;-6.294;2024-02-21T03:29:08;0.45;;;0.20;;
41719;SDS011;27405;53.316;-6.294;2024-02-21T03:31:37;0.85;;;0.20;;
41719;SDS011;27405;53.316;-6.294;2024-02-21T03:34:03;0.70;;;0.20;;
41719;SDS011;27405;53.316;-6.294;2024-02-21T03:36:28;0.63;;;0.30;;
41719;SDS011;27405;53.316;-6.294;2024-02-21T03:38:54;0.40;;;0.40;;
41719;SDS011;27405;53.316;-6.294;2024-02-21T03:41:20;0.20;;;0.20;;
41719;SDS011;27405;53.316;-6.294;2024-02-21T03:43:46;0.25;;;0.25;;
41719;SDS011;27405;53.316;-6.294;2024-02-21T03:46:12;0.47;;;0.30;;
41719;SDS011;27405;53.316;-6.294;2024-02-21T03:48:38;0.90;;;0.50;;
41719;SDS011;27405;53.316;-6.294;2024-02-21T03:51:04;0.52;;;0.50;;
41719;SDS011;27405;53.316;-6.294;2024-02-21T03:53:30;1.73;;;0.50;;
41719;SDS011;27405;53.316;-6.294;2024-02-21T03:55:55;0.65;;;0.40;;
41719;SDS011;27405;53.316;-6.294;2024-02-21T03:58:22;0.60;;;0.50;;
41719;SDS011;27405;53.316;-6.294;2024-02-21T04:00:47;0.60;;;0.30;;
41719;SDS011;27405;53.316;-6.294;2024-02-21T04:03:13;0.50;;;0.50;;
41719;SDS011;27405;53.316;-6.294;2024-02-21T04:05:39;0.70;;;0.50;;
41719;SDS011;27405;53.316;-6.294;2024-02-21T04:08:05;0.90;;;0.70;;
41719;SDS011;27405;53.316;-6.294;2024-02-21T04:10:31;1.85;;;0.50;;
41719;SDS011;27405;53.316;-6.294;2024-02-21T04:12:57;2.33;;;0.60;;
41719;SDS011;27405;53.316;-6.294;2024-02-21T04:15:22;1.38;;;0.50;;
41719;SDS011;27405;53.316;-6.294;2024-02-21T04:17:48;1.00;;;0.35;;
41719;SDS011;27405;53.316;-6.294;2024-02-21T04:20:14;0.75;;;0.50;;
41719;SDS011;27405;53.316;-6.294;2024-02-21T04:22:44;0.55;;;0.40;;
41719;SDS011;27405;53.316;-6.294;2024-02-21T04:25:10;0.40;;;0.40;;
41719;SDS011;27405;53.316;-6.294;2024-02-21T04:27:37;1.48;;;0.40;;
41719;SDS011;27405;53.316;-6.294;2024-02-21T04:30:04;0.82;;;0.30;;
41719;SDS011;27405;53.316;-6.294;2024-02-21T04:32:30;0.20;;;0.20;;
41719;SDS011;27405;53.316;-6.294;2024-02-21T04:34:55;0.28;;;0.10;;
41719;SDS011;27405;53.316;-6.294;2024-02-21T04:37:21;0.10;;;0.10;;
41719;SDS011;27405;53.316;-6.294;2024-02-21T04:39:48;0.63;;;0.20;;
41719;SDS011;27405;53.316;-6.294;2024-02-21T04:42:13;0.13;;;0.13;;
41719;SDS011;27405;53.316;-6.294;2024-02-21T04:44:39;1.45;;;0.10;;
41719;SDS011;27405;53.316;-6.294;2024-02-21T04:47:05;0.10;;;0.10;;
41719;SDS011;27405;53.316;-6.294;2024-02-21T04:49:32;0.10;;;0.10;;
41719;SDS011;27405;53.316;-6.294;2024-02-21T04:51:57;0.25;;;0.20;;
41719;SDS011;27405;53.316;-6.294;2024-02-21T04:54:23;1.02;;;0.30;;
41719;SDS011;27405;53.316;-6.294;2024-02-21T04:56:49;0.50;;;0.30;;
41719;SDS011;27405;53.316;-6.294;2024-02-21T04:59:15;0.20;;;0.20;;
41719;SDS011;27405;53.316;-6.294;2024-02-21T05:01:40;0.13;;;0.10;;
41719;SDS011;27405;53.316;-6.294;2024-02-21T05:04:06;0.38;;;0.10;;
41719;SDS011;27405;53.316;-6.294;2024-02-21T05:06:32;0.10;;;0.10;;
41719;SDS011;27405;53.316;-6.294;2024-02-21T05:09:04;1.38;;;0.63;;
41719;SDS011;27405;53.316;-6.294;2024-02-21T05:11:30;1.17;;;0.20;;
41719;SDS011;27405;53.316;-6.294;2024-02-21T05:13:56;1.65;;;0.22;;
41719;SDS011;27405;53.316;-6.294;2024-02-21T05:16:21;0.10;;;0.10;;
41719;SDS011;27405;53.316;-6.294;2024-02-21T05:18:47;0.10;;;0.10;;
41719;SDS011;27405;53.316;-6.294;2024-02-21T05:21:13;0.10;;;0.10;;
41719;SDS011;27405;53.316;-6.294;2024-02-21T05:23:39;0.70;;;0.20;;
41719;SDS011;27405;53.316;-6.294;2024-02-21T05:26:05;0.20;;;0.20;;
41719;SDS011;27405;53.316;-6.294;2024-02-21T05:28:31;1.90;;;0.20;;
41719;SDS011;27405;53.316;-6.294;2024-02-21T05:30:56;0.10;;;0.10;;
41719;SDS011;27405;53.316;-6.294;2024-02-21T05:33:22;0.13;;;0.10;;
41719;SDS011;27405;53.316;-6.294;2024-02-21T05:35:48;0.25;;;0.10;;
41719;SDS011;27405;53.316;-6.294;2024-02-21T05:38:14;0.35;;;0.10;;
41719;SDS011;27405;53.316;-6.294;2024-02-21T05:40:40;0.10;;;0.10;;
41719;SDS011;27405;53.316;-6.294;2024-02-21T05:43:09;0.10;;;0.10;;
41719;SDS011;27405;53.316;-6.294;2024-02-21T05:45:35;0.10;;;0.10;;
41719;SDS011;27405;53.316;-6.294;2024-02-21T05:48:01;0.10;;;0.10;;
41719;SDS011;27405;53.316;-6.294;2024-02-21T05:50:27;0.10;;;0.10;;
41719;SDS011;27405;53.316;-6.294;2024-02-21T05:52:54;0.10;;;0.10;;
41719;SDS011;27405;53.316;-6.294;2024-02-21T05:55:20;0.10;;;0.10;;
41719;SDS011;27405;53.316;-6.294;2024-02-21T05:57:46;0.35;;;0.20;;
41719;SDS011;27405;53.316;-6.294;2024-02-21T06:00:12;0.15;;;0.15;;
41719;SDS011;27405;53.316;-6.294;2024-02-21T06:02:39;0.10;;;0.10;;
41719;SDS011;27405;53.316;-6.294;2024-02-21T06:05:05;0.10;;;0.10;;
41719;SDS011;27405;53.316;-6.294;2024-02-21T06:07:32;0.32;;;0.20;;
41719;SDS011;27405;53.316;-6.294;2024-02-21T06:09:58;2.33;;;0.20;;
41719;SDS011;27405;53.316;-6.294;2024-02-21T06:12:25;0.10;;;0.10;;
41719;SDS011;27405;53.316;-6.294;2024-02-21T06:14:50;0.10;;;0.10;;
41719;SDS011;27405;53.316;-6.294;2024-02-21T06:17:17;0.10;;;0.10;;
41719;SDS011;27405;53.316;-6.294;2024-02-21T06:19:42;0.98;;;0.20;;
41719;SDS011;27405;53.316;-6.294;2024-02-21T06:22:09;0.10;;;0.10;;
41719;SDS011;27405;53.316;-6.294;2024-02-21T06:24:35;0.40;;;0.20;;
41719;SDS011;27405;53.316;-6.294;2024-02-21T06:27:03;0.10;;;0.10;;
41719;SDS011;27405;53.316;-6.294;2024-02-21T06:29:31;0.10;;;0.10;;
41719;SDS011;27405;53.316;-6.294;2024-02-21T06:31:57;1.20;;;0.20;;
41719;SDS011;27405;53.316;-6.294;2024-02-21T06:34:23;0.10;;;0.10;;
41719;SDS011;27405;53.316;-6.294;2024-02-21T06:36:49;0.10;;;0.10;;
41719;SDS011;27405;53.316;-6.294;2024-02-21T06:39:15;0.00;;;0.00;;
41719;SDS011;27405;53.316;-6.294;2024-02-21T06:41:41;0.52;;;0.20;;
41719;SDS011;27405;53.316;-6.294;2024-02-21T06:44:07;0.95;;;0.45;;
41719;SDS011;27405;53.316;-6.294;2024-02-21T06:46:32;0.10;;;0.10;;
41719;SDS011;27405;53.316;-6.294;2024-02-21T06:48:58;0.10;;;0.10;;
41719;SDS011;27405;53.316;-6.294;2024-02-21T06:51:28;0.10;;;0.10;;
41719;SDS011;27405;53.316;-6.294;2024-02-21T06:53:54;0.10;;;0.10;;
41719;SDS011;27405;53.316;-6.294;2024-02-21T06:56:20;0.55;;;0.10;;
41719;SDS011;27405;53.316;-6.294;2024-02-21T06:58:51;0.10;;;0.10;;
41719;SDS011;27405;53.316;-6.294;2024-02-21T07:01:17;0.40;;;0.20;;
41719;SDS011;27405;53.316;-6.294;2024-02-21T07:03:43;0.43;;;0.20;;
41719;SDS011;27405;53.316;-6.294;2024-02-21T07:06:08;0.35;;;0.10;;
41719;SDS011;27405;53.316;-6.294;2024-02-21T07:08:34;0.20;;;0.20;;
41719;SDS011;27405;53.316;-6.294;2024-02-21T07:11:00;0.32;;;0.25;;
41719;SDS011;27405;53.316;-6.294;2024-02-21T07:13:25;0.10;;;0.10;;
41719;SDS011;27405;53.316;-6.294;2024-02-21T07:15:51;0.20;;;0.20;;
41719;SDS011;27405;53.316;-6.294;2024-02-21T07:18:16;0.40;;;0.20;;
41719;SDS011;27405;53.316;-6.294;2024-02-21T07:20:42;0.20;;;0.20;;
41719;SDS011;27405;53.316;-6.294;2024-02-21T07:23:08;0.30;;;0.20;;
41719;SDS011;27405;53.316;-6.294;2024-02-21T07:25:33;0.50;;;0.20;;
41719;SDS011;27405;53.316;-6.294;2024-02-21T07:27:59;0.20;;;0.20;;
41719;SDS011;27405;53.316;-6.294;2024-02-21T07:30:25;0.10;;;0.10;;
41719;SDS011;27405;53.316;-6.294;2024-02-21T07:32:51;0.22;;;0.20;;
41719;SDS011;27405;53.316;-6.294;2024-02-21T07:35:20;0.60;;;0.50;;
41719;SDS011;27405;53.316;-6.294;2024-02-21T07:37:45;0.43;;;0.20;;
41719;SDS011;27405;53.316;-6.294;2024-02-21T07:40:15;0.20;;;0.20;;
41719;SDS011;27405;53.316;-6.294;2024-02-21T07:42:41;0.40;;;0.30;;
41719;SDS011;27405;53.316;-6.294;2024-02-21T07:45:08;0.85;;;0.20;;
41719;SDS011;27405;53.316;-6.294;2024-02-21T07:47:34;1.55;;;0.30;;
41719;SDS011;27405;53.316;-6.294;2024-02-21T07:50:01;1.02;;;0.80;;
41719;SDS011;27405;53.316;-6.294;2024-02-21T07:52:27;1.08;;;0.20;;
41719;SDS011;27405;53.316;-6.294;2024-02-21T07:54:53;0.70;;;0.20;;
41719;SDS011;27405;53.316;-6.294;2024-02-21T07:57:19;1.05;;;0.20;;
41719;SDS011;27405;53.316;-6.294;2024-02-21T07:59:44;0.38;;;0.10;;
41719;SDS011;27405;53.316;-6.294;2024-02-21T08:02:13;0.30;;;0.20;;
41719;SDS011;27405;53.316;-6.294;2024-02-21T08:04:39;0.77;;;0.22;;
41719;SDS011;27405;53.316;-6.294;2024-02-21T08:07:05;0.20;;;0.20;;
41719;SDS011;27405;53.316;-6.294;2024-02-21T08:09:31;2.72;;;0.35;;
41719;SDS011;27405;53.316;-6.294;2024-02-21T08:11:56;1.08;;;0.20;;
41719;SDS011;27405;53.316;-6.294;2024-02-21T08:14:22;0.20;;;0.20;;
41719;SDS011;27405;53.316;-6.294;2024-02-21T08:16:50;0.75;;;0.28;;
41719;SDS011;27405;53.316;-6.294;2024-02-21T08:19:18;0.30;;;0.20;;
41719;SDS011;27405;53.316;-6.294;2024-02-21T08:21:44;0.40;;;0.32;;
41719;SDS011;27405;53.316;-6.294;2024-02-21T08:24:12;1.23;;;0.32;;
41719;SDS011;27405;53.316;-6.294;2024-02-21T08:26:41;0.20;;;0.20;;
41719;SDS011;27405;53.316;-6.294;2024-02-21T08:29:07;0.28;;;0.20;;
41719;SDS011;27405;53.316;-6.294;2024-02-21T08:31:32;0.65;;;0.30;;
41719;SDS011;27405;53.316;-6.294;2024-02-21T08:33:59;1.65;;;0.55;;
41719;SDS011;27405;53.316;-6.294;2024-02-21T08:36:35;1.95;;;0.10;;
41719;SDS011;27405;53.316;-6.294;2024-02-21T08:39:01;0.32;;;0.25;;
41719;SDS011;27405;53.316;-6.294;2024-02-21T08:41:30;0.25;;;0.20;;
41719;SDS011;27405;53.316;-6.294;2024-02-21T08:43:56;1.67;;;0.23;;
41719;SDS011;27405;53.316;-6.294;2024-02-21T08:46:22;1.45;;;0.30;;
41719;SDS011;27405;53.316;-6.294;2024-02-21T08:48:49;1.60;;;0.40;;
41719;SDS011;27405;53.316;-6.294;2024-02-21T08:51:16;1.05;;;0.40;;
41719;SDS011;27405;53.316;-6.294;2024-02-21T08:53:43;0.60;;;0.28;;
41719;SDS011;27405;53.316;-6.294;2024-02-21T08:56:09;0.45;;;0.25;;
41719;SDS011;27405;53.316;-6.294;2024-02-21T08:58:39;0.80;;;0.40;;
41719;SDS011;27405;53.316;-6.294;2024-02-21T09:01:05;1.55;;;0.40;;
41719;SDS011;27405;53.316;-6.294;2024-02-21T09:03:38;2.13;;;0.50;;
41719;SDS011;27405;53.316;-6.294;2024-02-21T09:06:07;0.30;;;0.30;;
41719;SDS011;27405;53.316;-6.294;2024-02-21T09:08:33;1.10;;;0.43;;
41719;SDS011;27405;53.316;-6.294;2024-02-21T09:11:02;1.50;;;0.52;;
41719;SDS011;27405;53.316;-6.294;2024-02-21T09:13:28;2.58;;;0.40;;
41719;SDS011;27405;53.316;-6.294;2024-02-21T09:16:00;1.50;;;0.50;;
41719;SDS011;27405;53.316;-6.294;2024-02-21T09:18:29;1.33;;;0.40;;
41719;SDS011;27405;53.316;-6.294;2024-02-21T09:20:55;0.80;;;0.30;;
41719;SDS011;27405;53.316;-6.294;2024-02-21T09:23:23;1.15;;;0.40;;
41719;SDS011;27405;53.316;-6.294;2024-02-21T09:25:49;9.32;;;3.88;;
41719;SDS011;27405;53.316;-6.294;2024-02-21T09:28:15;2.05;;;0.30;;
41719;SDS011;27405;53.316;-6.294;2024-02-21T09:30:41;1.35;;;0.40;;
41719;SDS011;27405;53.316;-6.294;2024-02-21T09:33:06;1.30;;;0.30;;
41719;SDS011;27405;53.316;-6.294;2024-02-21T09:35:32;0.75;;;0.30;;
41719;SDS011;27405;53.316;-6.294;2024-02-21T09:37:58;1.02;;;0.30;;
41719;SDS011;27405;53.316;-6.294;2024-02-21T09:40:24;1.05;;;0.38;;
41719;SDS011;27405;53.316;-6.294;2024-02-21T09:42:50;0.80;;;0.50;;
41719;SDS011;27405;53.316;-6.294;2024-02-21T09:45:29;1.00;;;0.30;;
41719;SDS011;27405;53.316;-6.294;2024-02-21T09:48:15;1.55;;;0.50;;
41719;SDS011;27405;53.316;-6.294;2024-02-21T09:50:55;0.73;;;0.50;;
41719;SDS011;27405;53.316;-6.294;2024-02-21T09:53:22;2.10;;;0.50;;
41719;SDS011;27405;53.316;-6.294;2024-02-21T09:55:50;0.50;;;0.30;;
41719;SDS011;27405;53.316;-6.294;2024-02-21T09:58:16;0.57;;;0.40;;
41719;SDS011;27405;53.316;-6.294;2024-02-21T10:00:42;0.82;;;0.32;;
41719;SDS011;27405;53.316;-6.294;2024-02-21T10:03:08;0.95;;;0.40;;
41719;SDS011;27405;53.316;-6.294;2024-02-21T10:05:37;0.70;;;0.30;;
41719;SDS011;27405;53.316;-6.294;2024-02-21T10:08:04;2.00;;;0.47;;
41719;SDS011;27405;53.316;-6.294;2024-02-21T10:10:30;1.65;;;0.50;;
41719;SDS011;27405;53.316;-6.294;2024-02-21T10:13:05;0.63;;;0.40;;
41719;SDS011;27405;53.316;-6.294;2024-02-21T10:15:31;1.13;;;0.32;;
41719;SDS011;27405;53.316;-6.294;2024-02-21T10:18:00;0.57;;;0.28;;
41719;SDS011;27405;53.316;-6.294;2024-02-21T10:20:28;0.80;;;0.30;;
41719;SDS011;27405;53.316;-6.294;2024-02-21T10:23:03;2.35;;;0.50;;
41719;SDS011;27405;53.316;-6.294;2024-02-21T10:25:36;0.28;;;0.28;;
41719;SDS011;27405;53.316;-6.294;2024-02-21T10:28:12;0.28;;;0.28;;
41719;SDS011;27405;53.316;-6.294;2024-02-21T10:30:38;0.35;;;0.25;;
41719;SDS011;27405;53.316;-6.294;2024-02-21T10:33:03;0.32;;;0.32;;
41719;SDS011;27405;53.316;-6.294;2024-02-21T10:35:31;0.70;;;0.35;;
41719;SDS011;27405;53.316;-6.294;2024-02-21T10:37:58;0.50;;;0.30;;
41719;SDS011;27405;53.316;-6.294;2024-02-21T10:43:01;2.70;;;0.40;;
41719;SDS011;27405;53.316;-6.294;2024-02-21T10:45:32;0.40;;;0.32;;
41719;SDS011;27405;53.316;-6.294;2024-02-21T10:48:08;0.95;;;0.50;;
41719;SDS011;27405;53.316;-6.294;2024-02-21T10:50:45;0.85;;;0.30;;
41719;SDS011;27405;53.316;-6.294;2024-02-21T10:58:48;0.75;;;0.30;;
41719;SDS011;27405;53.316;-6.294;2024-02-21T11:01:14;0.57;;;0.40;;
41719;SDS011;27405;53.316;-6.294;2024-02-21T11:03:43;0.68;;;0.40;;
41719;SDS011;27405;53.316;-6.294;2024-02-21T11:06:11;1.00;;;0.40;;
41719;SDS011;27405;53.316;-6.294;2024-02-21T11:08:38;1.95;;;0.80;;
41719;SDS011;27405;53.316;-6.294;2024-02-21T11:11:04;2.10;;;0.52;;
41719;SDS011;27405;53.316;-6.294;2024-02-21T11:13:36;3.55;;;0.50;;
41719;SDS011;27405;53.316;-6.294;2024-02-21T11:16:08;2.40;;;0.47;;
41719;SDS011;27405;53.316;-6.294;2024-02-21T11:18:46;1.88;;;0.40;;
41719;SDS011;27405;53.316;-6.294;2024-02-21T11:21:12;1.13;;;0.40;;
41719;SDS011;27405;53.316;-6.294;2024-02-21T11:23:38;1.90;;;0.68;;
41719;SDS011;27405;53.316;-6.294;2024-02-21T11:26:04;1.75;;;0.30;;
41719;SDS011;27405;53.316;-6.294;2024-02-21T11:28:31;0.60;;;0.52;;
41719;SDS011;27405;53.316;-6.294;2024-02-21T11:31:07;2.05;;;0.45;;
41719;SDS011;27405;53.316;-6.294;2024-02-21T11:33:34;1.60;;;0.50;;
41719;SDS011;27405;53.316;-6.294;2024-02-21T11:36:01;0.93;;;0.40;;
41719;SDS011;27405;53.316;-6.294;2024-02-21T11:38:29;1.67;;;0.38;;
41719;SDS011;27405;53.316;-6.294;2024-02-21T11:40:55;1.20;;;0.55;;
41719;SDS011;27405;53.316;-6.294;2024-02-21T11:43:20;2.63;;;0.57;;
41719;SDS011;27405;53.316;-6.294;2024-02-21T11:45:46;1.48;;;0.57;;
41719;SDS011;27405;53.316;-6.294;2024-02-21T11:48:12;4.00;;;0.90;;
41719;SDS011;27405;53.316;-6.294;2024-02-21T11:50:37;3.10;;;0.60;;
41719;SDS011;27405;53.316;-6.294;2024-02-21T11:53:04;5.25;;;0.80;;
41719;SDS011;27405;53.316;-6.294;2024-02-21T11:55:30;6.53;;;0.80;;
41719;SDS011;27405;53.316;-6.294;2024-02-21T11:57:56;5.78;;;0.63;;
41719;SDS011;27405;53.316;-6.294;2024-02-21T12:00:22;2.85;;;0.82;;
41719;SDS011;27405;53.316;-6.294;2024-02-21T12:02:51;2.90;;;0.70;;
41719;SDS011;27405;53.316;-6.294;2024-02-21T12:05:20;2.47;;;0.50;;
41719;SDS011;27405;53.316;-6.294;2024-02-21T12:10:12;2.10;;;0.63;;
41719;SDS011;27405;53.316;-6.294;2024-02-21T12:12:38;2.83;;;0.82;;
41719;SDS011;27405;53.316;-6.294;2024-02-21T12:15:05;2.95;;;0.80;;
41719;SDS011;27405;53.316;-6.294;2024-02-21T12:17:35;2.97;;;0.70;;
41719;SDS011;27405;53.316;-6.294;2024-02-21T12:20:02;4.50;;;0.90;;
41719;SDS011;27405;53.316;-6.294;2024-02-21T12:22:31;6.45;;;0.80;;
41719;SDS011;27405;53.316;-6.294;2024-02-21T12:27:27;2.78;;;0.60;;
41719;SDS011;27405;53.316;-6.294;2024-02-21T12:29:53;3.95;;;1.00;;
41719;SDS011;27405;53.316;-6.294;2024-02-21T12:32:19;4.05;;;1.00;;
41719;SDS011;27405;53.316;-6.294;2024-02-21T12:34:45;6.53;;;1.00;;
41719;SDS011;27405;53.316;-6.294;2024-02-21T12:37:10;4.90;;;0.95;;
41719;SDS011;27405;53.316;-6.294;2024-02-21T12:39:40;3.50;;;0.90;;
41719;SDS011;27405;53.316;-6.294;2024-02-21T12:42:06;4.93;;;0.82;;
41719;SDS011;27405;53.316;-6.294;2024-02-21T12:44:32;4.40;;;1.10;;
41719;SDS011;27405;53.316;-6.294;2024-02-21T12:47:05;9.18;;;1.70;;
41719;SDS011;27405;53.316;-6.294;2024-02-21T12:49:31;7.07;;;1.20;;
41719;SDS011;27405;53.316;-6.294;2024-02-21T12:51:57;9.32;;;1.38;;
41719;SDS011;27405;53.316;-6.294;2024-02-21T12:54:23;8.80;;;1.40;;
41719;SDS011;27405;53.316;-6.294;2024-02-21T12:56:48;5.57;;;1.48;;
41719;SDS011;27405;53.316;-6.294;2024-02-21T12:59:15;8.38;;;1.67;;
41719;SDS011;27405;53.316;-6.294;2024-02-21T13:01:40;7.93;;;1.35;;
41719;SDS011;27405;53.316;-6.294;2024-02-21T13:04:06;5.82;;;1.20;;
41719;SDS011;27405;53.316;-6.294;2024-02-21T13:06:32;6.75;;;1.30;;
41719;SDS011;27405;53.316;-6.294;2024-02-21T13:08:58;6.38;;;1.20;;
41719;SDS011;27405;53.316;-6.294;2024-02-21T13:11:24;4.57;;;1.48;;
41719;SDS011;27405;53.316;-6.294;2024-02-21T13:13:52;6.97;;;0.90;;
41719;SDS011;27405;53.316;-6.294;2024-02-21T13:16:18;4.13;;;1.10;;
41719;SDS011;27405;53.316;-6.294;2024-02-21T13:18:43;8.25;;;1.05;;
41719;SDS011;27405;53.316;-6.294;2024-02-21T13:21:12;4.22;;;0.95;;
41719;SDS011;27405;53.316;-6.294;2024-02-21T13:23:37;7.72;;;0.93;;
41719;SDS011;27405;53.316;-6.294;2024-02-21T13:26:03;6.43;;;1.02;;
41719;SDS011;27405;53.316;-6.294;2024-02-21T13:28:29;4.70;;;1.10;;
41719;SDS011;27405;53.316;-6.294;2024-02-21T13:30:54;7.22;;;1.25;;
41719;SDS011;27405;53.316;-6.294;2024-02-21T13:33:20;6.93;;;1.20;;
41719;SDS011;27405;53.316;-6.294;2024-02-21T13:35:46;5.53;;;1.00;;
41719;SDS011;27405;53.316;-6.294;2024-02-21T13:38:11;5.53;;;1.30;;
41719;SDS011;27405;53.316;-6.294;2024-02-21T13:40:38;5.78;;;1.30;;
41719;SDS011;27405;53.316;-6.294;2024-02-21T13:43:04;4.82;;;0.93;;
41719;SDS011;27405;53.316;-6.294;2024-02-21T13:45:29;5.55;;;1.20;;
41719;SDS011;27405;53.316;-6.294;2024-02-21T13:47:56;4.28;;;1.23;;
41719;SDS011;27405;53.316;-6.294;2024-02-21T13:50:23;4.23;;;0.80;;
41719;SDS011;27405;53.316;-6.294;2024-02-21T13:52:56;6.50;;;1.20;;
41719;SDS011;27405;53.316;-6.294;2024-02-21T13:55:21;6.93;;;1.10;;
41719;SDS011;27405;53.316;-6.294;2024-02-21T13:57:50;4.22;;;1.02;;
41719;SDS011;27405;53.316;-6.294;2024-02-21T14:00:17;8.25;;;1.02;;
41719;SDS011;27405;53.316;-6.294;2024-02-21T14:02:43;4.57;;;0.88;;
41719;SDS011;27405;53.316;-6.294;2024-02-21T14:05:09;4.97;;;0.98;;
41719;SDS011;27405;53.316;-6.294;2024-02-21T14:07:35;3.78;;;1.10;;
41719;SDS011;27405;53.316;-6.294;2024-02-21T14:10:01;6.13;;;1.20;;
41719;SDS011;27405;53.316;-6.294;2024-02-21T14:12:26;3.80;;;0.98;;
41719;SDS011;27405;53.316;-6.294;2024-02-21T14:14:52;7.28;;;0.95;;
41719;SDS011;27405;53.316;-6.294;2024-02-21T14:17:18;4.53;;;1.13;;
41719;SDS011;27405;53.316;-6.294;2024-02-21T14:19:45;5.10;;;1.05;;
41719;SDS011;27405;53.316;-6.294;2024-02-21T14:22:10;3.83;;;1.10;;
41719;SDS011;27405;53.316;-6.294;2024-02-21T14:24:36;7.20;;;1.20;;
41719;SDS011;27405;53.316;-6.294;2024-02-21T14:27:02;13.25;;;2.15;;
41719;SDS011;27405;53.316;-6.294;2024-02-21T14:29:28;6.43;;;1.40;;
41719;SDS011;27405;53.316;-6.294;2024-02-21T14:31:54;6.30;;;1.60;;
41719;SDS011;27405;53.316;-6.294;2024-02-21T14:34:19;10.40;;;2.50;;
41719;SDS011;27405;53.316;-6.294;2024-02-21T14:36:45;9.68;;;2.00;;
41719;SDS011;27405;53.316;-6.294;2024-02-21T14:39:13;10.73;;;2.33;;
41719;SDS011;27405;53.316;-6.294;2024-02-21T14:41:38;11.57;;;1.67;;
41719;SDS011;27405;53.316;-6.294;2024-02-21T14:44:04;11.32;;;1.60;;
41719;SDS011;27405;53.316;-6.294;2024-02-21T14:46:30;9.73;;;1.95;;
41719;SDS011;27405;53.316;-6.294;2024-02-21T14:48:56;9.52;;;2.20;;